Погода Итурамана 2 недели

Минас-Жерайс, Бразилия

21 июля-03 августа
  • 21июля
    Сегодня
    +16°
    +31°
    Ясно и безоблачно
    ВремяПогодаТемператураВлажностьДавлениеВетер, м/сВероятность осадков
    00:00Ясно и безоблачно+20°C51 %730 мм2.3 м/с5 %
    03:00Ясно и безоблачно+18°C62 %729 мм2.4 м/с5 %
    06:00Ясно и безоблачно+17°C69 %729 мм2.5 м/с5 %
    09:00Ясно и безоблачно+20°C45 %731 мм2.0 м/с5 %
    12:00Ясно и безоблачно+28°C27 %731 мм2.0 м/с5 %
    15:00Ясно и безоблачно+31°C22 %729 мм1.8 м/с5 %
    18:00Ясно и безоблачно+28°C32 %728 мм1.6 м/с5 %
    21:00Ясно и безоблачно+25°C49 %729 мм2.3 м/с5 %
  • 22июля
    Понедельник
    +17°
    +30°
    Ясно и безоблачно
    ВремяПогодаТемператураВлажностьДавлениеВетер, м/сВероятность осадков
    00:00Ясно и безоблачно+21°C54 %730 мм2.3 м/с5 %
    03:00Ясно и безоблачно+19°C55 %729 мм2.3 м/с5 %
    06:00Ясно и безоблачно+17°C64 %729 мм2.1 м/с5 %
    09:00Ясно и безоблачно+21°C46 %732 мм1.2 м/с5 %
    12:00Ясно и безоблачно+28°C28 %732 мм1.6 м/с5 %
    15:00Ясно и безоблачно+30°C24 %730 мм3.3 м/с5 %
    18:00Ясно и безоблачно+27°C29 %729 мм2.5 м/с5 %
    21:00Ясно и безоблачно+25°C42 %730 мм2.4 м/с5 %
  • 23июля
    Вторник
    +19°
    +31°
    Ясно и безоблачно
    ВремяПогодаТемператураВлажностьДавлениеВетер, м/сВероятность осадков
    00:00Ясно и безоблачно+21°C44 %730 мм2.6 м/с5 %
    03:00Ясно и безоблачно+19°C62 %730 мм2.4 м/с5 %
    06:00Ясно и безоблачно+18°C63 %730 мм2.6 м/с5 %
    09:00Ясно и безоблачно+20°C46 %732 мм2.8 м/с5 %
    12:00Ясно и безоблачно+28°C30 %732 мм1.8 м/с5 %
    15:00Ясно и безоблачно+31°C25 %729 мм2.0 м/с5 %
    18:00Ясно и безоблачно+28°C35 %730 мм3.0 м/с5 %
    21:00Ясно и безоблачно+26°C40 %730 мм3.4 м/с5 %
  • 24июля
    Среда
    +18°
    +32°
    Небольшая облачность
    ВремяПогодаТемператураВлажностьДавлениеВетер, м/сВероятность осадков
    00:00Ясно и безоблачно+23°C40 %730 мм2.8 м/с5 %
    03:00Ясно и безоблачно+21°C44 %729 мм2.8 м/с5 %
    06:00Практически безоблачно+20°C49 %729 мм2.9 м/с5 %
    09:00Небольшая облачность+23°C36 %731 мм3.0 м/с5 %
    12:00Практически безоблачно+30°C22 %732 мм4.1 м/с5 %
    15:00Небольшая облачность+31°C20 %730 мм2.3 м/с5 %
    18:00Ясно и безоблачно+29°C29 %729 мм1.9 м/с5 %
    21:00Ясно и безоблачно+25°C37 %730 мм2.1 м/с5 %
  • 25июля
    Четверг
    +19°
    +32°
    Ясно и безоблачно
    ВремяПогодаТемператураВлажностьДавлениеВетер, м/сВероятность осадков
    00:00Ясно и безоблачно+21°C42 %730 мм2.5 м/с5 %
    03:00Ясно и безоблачно+21°C46 %729 мм2.2 м/с5 %
    06:00Ясно и безоблачно+19°C57 %729 мм1.8 м/с5 %
    09:00Ясно и безоблачно+22°C37 %731 мм2.3 м/с5 %
    12:00Ясно и безоблачно+29°C24 %731 мм2.9 м/с5 %
    15:00Ясно и безоблачно+31°C21 %728 мм0.8 м/с5 %
    18:00Ясно и безоблачно+29°C29 %728 мм2.4 м/с5 %
    21:00Ясно и безоблачно+25°C36 %728 мм2.6 м/с5 %
Мы используем cookies
Соглашаюсь